Time;durP1;ratioP1;P1;durP2;ratioP2;P2;SDS_P1;SDS_P2;PMS_P1;PMS_P2;Temp;Humidity;BMP_temperature;BMP_pressure;BME280_temperature;BME280_humidity;BME280_pressure;Samples;Min_cycle;Max_cycle;Signal;HPM_P1;HPM_P2
2023/01/10 00:00:49;;;;;;;19.17;10.67;;;6.70;99.90;;;;;;5037101;28;20206;-49
2023/01/10 00:03:16;;;;;;;18.00;10.80;;;6.70;99.90;;;;;;5031360;28;20192;-54
2023/01/10 00:05:43;;;;;;;22.37;9.97;;;6.80;99.90;;;;;;5033422;28;20199;-45
2023/01/10 00:08:15;;;;;;;16.87;9.80;;;6.70;99.90;;;;;;5024971;28;20220;-55
2023/01/10 00:10:42;;;;;;;18.90;9.57;;;6.70;99.90;;;;;;5022908;28;20321;-50
2023/01/10 00:13:22;;;;;;;17.27;9.33;;;6.70;99.90;;;;;;5023984;28;20200;-52
2023/01/10 00:15:51;;;;;;;19.13;9.50;;;6.70;99.90;;;;;;5015613;28;20602;-51
2023/01/10 00:18:18;;;;;;;20.67;9.77;;;6.70;99.90;;;;;;5031870;28;20219;-51
2023/01/10 00:20:47;;;;;;;20.87;8.13;;;6.80;99.90;;;;;;5024874;28;20207;-47
2023/01/10 00:23:16;;;;;;;19.97;8.63;;;6.70;99.90;;;;;;5023538;28;20738;-52
2023/01/10 00:25:42;;;;;;;13.83;8.10;;;6.70;99.90;;;;;;5025436;28;20420;-44
2023/01/10 00:28:18;;;;;;;17.93;9.30;;;6.70;99.90;;;;;;5032965;28;20302;-54
2023/01/10 00:30:50;;;;;;;18.80;8.13;;;6.70;99.90;;;;;;5021704;28;20226;-46
2023/01/10 00:33:19;;;;;;;18.00;8.53;;;6.70;99.90;;;;;;5031617;28;20196;-54
2023/01/10 00:35:46;;;;;;;22.47;7.50;;;6.80;99.90;;;;;;5031175;28;20752;-45
2023/01/10 00:38:13;;;;;;;17.67;8.50;;;6.70;99.90;;;;;;5024138;28;20246;-55
2023/01/10 00:40:40;;;;;;;13.40;7.23;;;6.70;99.90;;;;;;5026993;28;20868;-49
2023/01/10 00:45:53;;;;;;;16.47;8.03;;;6.70;99.90;;;;;;5020781;28;20298;-50
2023/01/10 00:48:21;;;;;;;20.23;8.33;;;6.70;99.90;;;;;;5023100;28;20592;-55
2023/01/10 00:50:48;;;;;;;16.50;6.97;;;6.70;99.90;;;;;;5024797;28;20224;-54
2023/01/10 00:53:15;;;;;;;18.17;7.17;;;6.70;99.90;;;;;;5037834;28;20574;-52
2023/01/10 00:55:42;;;;;;;13.47;6.93;;;6.70;99.90;;;;;;5029366;28;20900;-50
2023/01/10 00:58:10;;;;;;;17.17;8.20;;;6.70;99.90;;;;;;5030494;28;20219;-52
2023/01/10 01:00:37;;;;;;;17.23;7.13;;;6.70;99.90;;;;;;5012019;28;20337;-48
2023/01/10 01:03:05;;;;;;;15.53;7.37;;;6.70;99.90;;;;;;5035895;28;20199;-51
2023/01/10 01:05:34;;;;;;;17.63;6.67;;;6.70;99.90;;;;;;5025737;28;20184;-47
2023/01/10 01:08:01;;;;;;;12.73;7.30;;;6.70;99.90;;;;;;5024578;28;20307;-50
2023/01/10 01:10:27;;;;;;;16.50;5.87;;;6.70;99.90;;;;;;5016498;28;20235;-51
2023/01/10 01:12:56;;;;;;;17.57;6.60;;;6.60;99.90;;;;;;5024775;28;20199;-45
2023/01/10 01:15:23;;;;;;;10.73;6.10;;;6.60;99.90;;;;;;5021291;28;20663;-52
2023/01/10 01:17:50;;;;;;;12.63;6.20;;;6.60;99.90;;;;;;5022561;28;20227;-47
2023/01/10 01:20:18;;;;;;;9.97;5.63;;;6.60;99.90;;;;;;5028617;28;20616;-52
2023/01/10 01:22:47;;;;;;;11.87;5.87;;;6.60;99.90;;;;;;5023661;28;20574;-45
2023/01/10 01:25:14;;;;;;;13.00;6.07;;;6.60;99.90;;;;;;5024681;28;20591;-52
2023/01/10 01:27:40;;;;;;;12.97;5.73;;;6.60;99.90;;;;;;5025027;28;20215;-49
2023/01/10 01:30:10;;;;;;;13.20;5.07;;;6.50;99.90;;;;;;5023869;28;20208;-49
2023/01/10 01:32:38;;;;;;;15.97;5.90;;;6.50;99.90;;;;;;5010751;28;20203;-46
2023/01/10 01:35:07;;;;;;;16.57;6.10;;;6.50;99.90;;;;;;5040255;28;20547;-53
2023/01/10 01:37:34;;;;;;;17.87;6.03;;;6.40;99.90;;;;;;5021186;28;20216;-51
2023/01/10 01:40:02;;;;;;;8.47;5.00;;;6.40;99.90;;;;;;5024468;28;20674;-48
2023/01/10 01:42:32;;;;;;;12.67;4.93;;;6.40;99.90;;;;;;5018221;28;20214;-51
2023/01/10 01:45:35;;;;;;;12.00;6.37;;;6.40;99.90;;;;;;5024283;28;20910;-47
2023/01/10 01:48:09;;;;;;;9.97;5.03;;;6.30;99.90;;;;;;5024278;28;20709;-51
2023/01/10 01:50:42;;;;;;;9.10;5.30;;;6.30;99.90;;;;;;5020049;28;20842;-45
2023/01/10 01:53:14;;;;;;;11.23;5.03;;;6.30;99.90;;;;;;5034840;28;20199;-53
2023/01/10 01:55:45;;;;;;;14.73;5.57;;;6.30;99.90;;;;;;5026980;28;20332;-47
2023/01/10 01:58:15;;;;;;;14.37;4.93;;;6.30;99.90;;;;;;5026262;28;20215;-55
2023/01/10 02:00:42;;;;;;;10.70;5.47;;;6.30;99.90;;;;;;5031684;28;20199;-44
2023/01/10 02:03:10;;;;;;;15.13;4.87;;;6.30;99.90;;;;;;5025884;28;20203;-52
2023/01/10 02:05:39;;;;;;;10.30;5.07;;;6.20;99.90;;;;;;5023986;28;20215;-50
2023/01/10 02:08:06;;;;;;;12.97;4.90;;;6.30;99.90;;;;;;5033636;28;20216;-53
2023/01/10 02:11:07;;;;;;;11.30;4.70;;;6.20;99.90;;;;;;5029261;28;20280;-49
2023/01/10 02:13:37;;;;;;;16.00;4.90;;;6.30;99.90;;;;;;5020560;28;20196;-46
2023/01/10 02:16:05;;;;;;;8.03;4.70;;;6.20;99.90;;;;;;5024013;28;20283;-52
2023/01/10 02:18:32;;;;;;;13.70;4.30;;;6.30;99.90;;;;;;5022956;28;20846;-49
2023/01/10 02:21:14;;;;;;;15.43;5.00;;;6.30;99.90;;;;;;5014634;28;20729;-48
2023/01/10 02:24:12;;;;;;;11.10;4.53;;;6.30;99.90;;;;;;5027289;28;20188;-45
2023/01/10 02:27:09;;;;;;;8.67;4.00;;;6.30;99.90;;;;;;5034723;28;20195;-49
2023/01/10 02:30:09;;;;;;;10.27;4.83;;;6.30;99.90;;;;;;5027637;28;20216;-49
2023/01/10 02:32:42;;;;;;;10.10;4.07;;;6.20;99.90;;;;;;5036400;28;20952;-48
2023/01/10 02:35:20;;;;;;;12.10;4.40;;;6.20;99.90;;;;;;5036113;28;20407;-53
2023/01/10 02:37:57;;;;;;;16.17;4.27;;;6.20;99.90;;;;;;5029656;28;20705;-46
2023/01/10 02:40:30;;;;;;;14.40;5.20;;;6.20;99.90;;;;;;5021398;28;20278;-49
2023/01/10 02:43:05;;;;;;;9.03;4.40;;;6.20;99.90;;;;;;5036297;28;20195;-45
2023/01/10 02:45:38;;;;;;;17.03;4.87;;;6.20;99.90;;;;;;5020299;28;20191;-47
2023/01/10 02:48:06;;;;;;;11.80;4.37;;;6.20;99.90;;;;;;5023217;28;20589;-52
2023/01/10 02:50:52;;;;;;;12.57;4.40;;;6.20;99.90;;;;;;5012817;28;20231;-47
2023/01/10 02:53:24;;;;;;;6.17;3.77;;;6.20;99.90;;;;;;5030664;28;20662;-53
2023/01/10 02:56:10;;;;;;;15.93;4.77;;;6.20;99.90;;;;;;5029622;28;20863;-49
2023/01/10 02:58:48;;;;;;;7.93;4.27;;;6.20;99.90;;;;;;5030841;28;20663;-46
2023/01/10 03:01:27;;;;;;;10.03;4.53;;;6.20;99.90;;;;;;5032062;28;20290;-51
2023/01/10 03:04:02;;;;;;;10.70;4.23;;;6.20;99.90;;;;;;5035219;28;20204;-44
2023/01/10 03:06:34;;;;;;;11.23;4.57;;;6.20;99.90;;;;;;5015717;28;20505;-44
2023/01/10 03:09:09;;;;;;;14.43;4.90;;;6.20;99.90;;;;;;5030594;28;20199;-46
2023/01/10 03:11:43;;;;;;;10.40;4.23;;;6.20;99.90;;;;;;5031893;28;20207;-47
2023/01/10 03:14:15;;;;;;;10.70;4.93;;;6.20;99.90;;;;;;5028591;28;20279;-52
2023/01/10 03:16:48;;;;;;;11.93;4.50;;;6.20;99.90;;;;;;5024675;28;20195;-44
2023/01/10 03:19:20;;;;;;;10.03;4.47;;;6.20;99.90;;;;;;5035515;28;20278;-53
2023/01/10 03:21:49;;;;;;;11.87;4.50;;;6.20;99.90;;;;;;5025091;28;20207;-47
2023/01/10 03:24:19;;;;;;;11.17;3.93;;;6.20;99.90;;;;;;5035169;28;20761;-53
2023/01/10 03:26:57;;;;;;;11.97;3.87;;;6.20;99.90;;;;;;5033126;28;20206;-50
2023/01/10 03:29:31;;;;;;;7.10;3.63;;;6.20;99.90;;;;;;5019911;28;21411;-49
2023/01/10 03:32:03;;;;;;;7.90;4.00;;;6.20;99.90;;;;;;5024699;28;20507;-50
2023/01/10 03:34:32;;;;;;;7.90;3.67;;;6.10;99.90;;;;;;5024769;28;20202;-44
2023/01/10 03:37:08;;;;;;;8.10;4.00;;;6.10;99.90;;;;;;5022059;28;20231;-55
2023/01/10 03:39:44;;;;;;;10.73;3.97;;;6.10;99.90;;;;;;5031529;28;20231;-51
2023/01/10 03:42:16;;;;;;;8.00;3.70;;;6.10;99.90;;;;;;5022405;28;20200;-50
2023/01/10 03:44:53;;;;;;;8.17;3.50;;;6.00;99.90;;;;;;5039513;28;20796;-48
2023/01/10 03:47:28;;;;;;;16.57;3.60;;;6.00;99.90;;;;;;5021201;28;20207;-49
2023/01/10 03:50:01;;;;;;;11.77;3.53;;;6.00;99.90;;;;;;5026661;28;20210;-52
2023/01/10 03:52:29;;;;;;;14.50;3.57;;;5.90;99.90;;;;;;5020745;28;20220;-50
2023/01/10 03:54:57;;;;;;;11.27;3.87;;;5.90;99.90;;;;;;5025638;28;20195;-51
2023/01/10 03:57:25;;;;;;;11.00;3.40;;;5.90;99.90;;;;;;5034437;28;20262;-49
2023/01/10 03:59:55;;;;;;;11.67;4.03;;;5.80;99.90;;;;;;5026259;28;20883;-50
2023/01/10 04:02:22;;;;;;;8.93;3.60;;;5.80;99.90;;;;;;5020748;28;20296;-48
2023/01/10 04:04:50;;;;;;;9.27;3.23;;;5.80;99.90;;;;;;5033989;28;20208;-49
2023/01/10 04:07:18;;;;;;;9.20;3.27;;;5.70;99.90;;;;;;5022245;28;20223;-50
2023/01/10 04:09:45;;;;;;;11.53;3.50;;;5.70;99.90;;;;;;5014094;28;20200;-48
2023/01/10 04:12:12;;;;;;;8.07;3.70;;;5.70;99.90;;;;;;5029004;28;20231;-53
2023/01/10 04:14:39;;;;;;;9.37;3.50;;;5.70;99.90;;;;;;5036148;28;20210;-49
2023/01/10 04:17:06;;;;;;;13.53;3.93;;;5.70;99.90;;;;;;5030372;28;20216;-51
2023/01/10 04:19:33;;;;;;;9.77;3.83;;;5.70;99.90;;;;;;5030514;28;20215;-51
2023/01/10 04:21:59;;;;;;;9.03;3.60;;;5.70;99.90;;;;;;5024232;28;20649;-52
2023/01/10 04:24:28;;;;;;;9.13;3.40;;;5.70;99.90;;;;;;5031070;28;20203;-48
2023/01/10 04:26:55;;;;;;;10.40;3.70;;;5.70;99.90;;;;;;5021402;28;20226;-45
2023/01/10 04:29:21;;;;;;;11.87;3.70;;;5.70;99.90;;;;;;5031747;28;20180;-48
2023/01/10 04:31:48;;;;;;;6.77;3.50;;;5.70;99.90;;;;;;5035240;28;20223;-45
2023/01/10 04:34:15;;;;;;;12.63;3.60;;;5.70;99.90;;;;;;5023933;28;20920;-47
2023/01/10 04:36:43;;;;;;;11.30;3.77;;;5.70;99.90;;;;;;5024874;28;20905;-50
2023/01/10 04:39:10;;;;;;;12.50;3.40;;;5.70;99.90;;;;;;5022797;28;20222;-55
2023/01/10 04:41:38;;;;;;;9.77;4.07;;;5.70;99.90;;;;;;5018093;28;20203;-47
2023/01/10 04:44:05;;;;;;;13.50;4.20;;;5.80;99.90;;;;;;5026841;28;20250;-54
2023/01/10 04:46:32;;;;;;;13.10;3.63;;;5.80;99.90;;;;;;5023919;28;21030;-50
2023/01/10 04:49:00;;;;;;;13.47;3.30;;;5.80;99.90;;;;;;5024376;28;20215;-52
2023/01/10 04:51:26;;;;;;;13.87;3.20;;;5.80;99.90;;;;;;5022419;28;20212;-51
2023/01/10 04:53:53;;;;;;;13.20;3.70;;;5.80;99.90;;;;;;5025185;28;20658;-47
2023/01/10 04:56:22;;;;;;;12.47;3.30;;;5.90;99.90;;;;;;5006373;28;20223;-51
2023/01/10 04:58:51;;;;;;;13.53;3.60;;;5.80;99.90;;;;;;5029935;28;20216;-46
2023/01/10 05:01:20;;;;;;;11.60;3.00;;;5.90;99.90;;;;;;5029201;28;20223;-49
2023/01/10 05:03:48;;;;;;;10.17;2.97;;;5.90;99.90;;;;;;5024670;28;20966;-47
2023/01/10 05:06:15;;;;;;;13.07;3.23;;;5.90;99.90;;;;;;5025259;28;20200;-50
2023/01/10 05:08:42;;;;;;;10.67;2.53;;;5.90;99.90;;;;;;5026327;28;20211;-48
2023/01/10 05:11:10;;;;;;;7.30;2.70;;;5.90;99.90;;;;;;5030030;28;20290;-44
2023/01/10 05:13:37;;;;;;;12.37;3.67;;;5.90;99.90;;;;;;5015155;28;20211;-52
2023/01/10 05:16:06;;;;;;;7.47;2.50;;;5.90;99.90;;;;;;5028650;28;20192;-45
2023/01/10 05:18:32;;;;;;;10.27;3.67;;;5.90;99.90;;;;;;5023562;28;20277;-52
2023/01/10 05:21:00;;;;;;;8.47;3.30;;;5.90;99.90;;;;;;5027518;28;20196;-50
2023/01/10 05:23:28;;;;;;;9.83;2.47;;;6.00;99.90;;;;;;5033377;28;20671;-56
2023/01/10 05:25:55;;;;;;;8.73;2.43;;;6.00;99.90;;;;;;5027401;28;20461;-51
2023/01/10 05:28:21;;;;;;;5.50;2.13;;;6.00;99.90;;;;;;5023364;28;20747;-52
2023/01/10 05:30:49;;;;;;;7.60;2.63;;;6.00;99.90;;;;;;5027731;28;20718;-50
2023/01/10 05:33:17;;;;;;;7.07;2.50;;;6.00;99.90;;;;;;5028232;28;20717;-51
2023/01/10 05:35:44;;;;;;;9.23;3.23;;;6.00;99.90;;;;;;5054502;28;20202;-46
2023/01/10 05:38:11;;;;;;;9.30;2.77;;;6.00;99.90;;;;;;5025618;28;20220;-52
2023/01/10 05:40:38;;;;;;;8.47;3.00;;;5.90;99.90;;;;;;5032921;28;20845;-50
2023/01/10 05:43:05;;;;;;;8.53;2.77;;;5.90;99.90;;;;;;5011458;28;20666;-51
2023/01/10 05:45:32;;;;;;;12.47;3.77;;;5.90;99.90;;;;;;5031226;28;20223;-54
2023/01/10 05:47:59;;;;;;;16.27;3.70;;;5.90;99.90;;;;;;5027695;28;20286;-50
2023/01/10 05:50:27;;;;;;;6.63;2.43;;;5.90;99.90;;;;;;5025984;28;20203;-53
2023/01/10 05:52:53;;;;;;;6.57;2.20;;;5.90;99.90;;;;;;5024262;28;20290;-51
2023/01/10 05:55:20;;;;;;;8.87;2.90;;;5.90;99.90;;;;;;5025951;28;20203;-54
2023/01/10 05:57:47;;;;;;;8.23;2.43;;;5.90;99.90;;;;;;5022825;28;20575;-51
2023/01/10 06:00:15;;;;;;;7.43;2.50;;;5.80;99.90;;;;;;5017114;28;20747;-54
2023/01/10 06:02:42;;;;;;;8.23;2.50;;;5.80;99.90;;;;;;5028677;28;20663;-46
2023/01/10 06:05:09;;;;;;;14.80;3.37;;;5.80;99.90;;;;;;5021084;28;20207;-50
2023/01/10 06:07:37;;;;;;;8.43;3.23;;;5.80;99.90;;;;;;5032553;28;20235;-50
2023/01/10 06:10:05;;;;;;;13.20;3.33;;;5.80;99.90;;;;;;5033771;28;20202;-54
2023/01/10 06:12:32;;;;;;;10.73;2.70;;;5.70;99.90;;;;;;5028173;28;21756;-46
2023/01/10 06:14:59;;;;;;;9.33;3.20;;;5.70;99.90;;;;;;5019243;28;20230;-49
2023/01/10 06:17:26;;;;;;;10.17;2.97;;;5.70;99.90;;;;;;5032143;28;20999;-48
2023/01/10 06:19:52;;;;;;;8.67;3.07;;;5.60;99.90;;;;;;5027590;28;20209;-46
2023/01/10 06:22:19;;;;;;;10.73;3.17;;;5.60;99.90;;;;;;5028204;28;20206;-49
2023/01/10 06:24:47;;;;;;;12.70;3.10;;;5.60;99.90;;;;;;5037035;28;20582;-47
2023/01/10 06:27:14;;;;;;;14.87;4.47;;;5.60;99.90;;;;;;5019233;28;20228;-54
2023/01/10 06:29:41;;;;;;;15.23;3.90;;;5.50;99.90;;;;;;5011559;28;20576;-53
2023/01/10 06:32:07;;;;;;;18.57;3.90;;;5.50;99.90;;;;;;5027923;28;20219;-53
2023/01/10 06:34:35;;;;;;;14.40;3.57;;;5.50;99.90;;;;;;5037585;28;20256;-51
2023/01/10 06:37:01;;;;;;;11.90;4.00;;;5.50;99.90;;;;;;5036527;28;20716;-49
2023/01/10 06:39:29;;;;;;;8.90;2.93;;;5.40;99.90;;;;;;5038389;28;20256;-47
2023/01/10 06:41:56;;;;;;;12.87;3.27;;;5.40;99.90;;;;;;5035012;28;20254;-48
2023/01/10 06:44:23;;;;;;;13.10;2.80;;;5.40;99.90;;;;;;5020178;28;21058;-48
2023/01/10 06:46:50;;;;;;;9.70;3.27;;;5.40;99.90;;;;;;5036555;28;20195;-48
2023/01/10 06:49:17;;;;;;;15.13;4.03;;;5.40;99.90;;;;;;5032213;28;20223;-51
2023/01/10 06:51:44;;;;;;;16.90;3.20;;;5.40;99.90;;;;;;5029457;28;20229;-48
2023/01/10 06:54:11;;;;;;;11.67;3.00;;;5.40;99.90;;;;;;5024786;28;20714;-52
2023/01/10 06:56:38;;;;;;;9.90;2.70;;;5.40;99.90;;;;;;5031051;28;20250;-48
2023/01/10 06:59:29;;;;;;;8.43;2.37;;;5.40;99.90;;;;;;5025321;28;20214;-50
2023/01/10 07:01:56;;;;;;;6.77;2.87;;;5.40;99.90;;;;;;5023297;28;20204;-51
2023/01/10 07:04:23;;;;;;;8.40;3.60;;;5.40;99.90;;;;;;5024271;28;20892;-48
2023/01/10 07:06:50;;;;;;;12.70;3.90;;;5.30;99.90;;;;;;5022763;28;20218;-50
2023/01/10 07:09:17;;;;;;;9.60;2.90;;;5.30;99.90;;;;;;5023550;28;20196;-48
2023/01/10 07:11:44;;;;;;;11.67;4.07;;;5.30;99.90;;;;;;5035795;28;20198;-50
2023/01/10 07:14:11;;;;;;;13.67;4.10;;;5.30;99.90;;;;;;5020138;28;20270;-52
2023/01/10 07:16:39;;;;;;;11.53;3.90;;;5.30;99.90;;;;;;5023213;28;20200;-48
2023/01/10 07:19:06;;;;;;;13.70;4.80;;;5.30;99.90;;;;;;5040636;28;20717;-50
2023/01/10 07:21:55;;;;;;;12.10;3.20;;;5.30;99.90;;;;;;5030728;28;20317;-49
2023/01/10 07:24:22;;;;;;;8.57;3.37;;;5.30;99.90;;;;;;5030726;28;20222;-49
2023/01/10 07:26:50;;;;;;;15.43;4.90;;;5.30;99.90;;;;;;5030080;28;20665;-50
2023/01/10 07:29:16;;;;;;;15.27;5.50;;;5.30;99.90;;;;;;5025406;28;20191;-52
2023/01/10 07:31:45;;;;;;;15.53;4.60;;;5.30;99.90;;;;;;5018647;28;20917;-49
2023/01/10 07:34:11;;;;;;;14.07;3.97;;;5.30;99.90;;;;;;5034232;28;20287;-53
2023/01/10 07:36:38;;;;;;;23.60;5.33;;;5.30;99.90;;;;;;5023441;28;20222;-49
2023/01/10 07:39:05;;;;;;;24.40;6.73;;;5.30;99.90;;;;;;5027169;28;20208;-51
2023/01/10 07:41:32;;;;;;;17.47;4.77;;;5.30;99.90;;;;;;5023057;28;20192;-46
2023/01/10 07:43:59;;;;;;;9.37;2.97;;;5.30;99.90;;;;;;5025117;28;20196;-52
2023/01/10 07:46:26;;;;;;;12.13;4.37;;;5.30;99.90;;;;;;5023304;28;20207;-50
2023/01/10 07:48:54;;;;;;;17.03;4.30;;;5.30;99.90;;;;;;5018170;28;20226;-50
2023/01/10 07:51:20;;;;;;;16.87;4.60;;;5.30;99.90;;;;;;5022326;28;20208;-47
2023/01/10 07:53:47;;;;;;;20.57;4.67;;;5.30;99.90;;;;;;5030263;28;20733;-50
2023/01/10 07:56:14;;;;;;;22.93;4.77;;;5.30;99.90;;;;;;5025017;28;20199;-45
2023/01/10 07:58:41;;;;;;;26.67;6.63;;;5.30;99.90;;;;;;5037193;28;20219;-52
2023/01/10 08:01:11;;;;;;;14.53;6.00;;;5.30;99.90;;;;;;5025644;28;20203;-51
2023/01/10 08:03:37;;;;;;;21.63;6.27;;;5.20;99.90;;;;;;5015914;28;20207;-49
2023/01/10 08:06:09;;;;;;;24.20;8.03;;;5.20;99.90;;;;;;5032977;28;20688;-52
2023/01/10 08:08:35;;;;;;;20.07;6.60;;;5.20;99.90;;;;;;5023427;28;20219;-48
2023/01/10 08:11:03;;;;;;;10.33;4.33;;;5.20;99.90;;;;;;5030111;28;20207;-50
2023/01/10 08:13:30;;;;;;;18.10;5.40;;;5.30;99.90;;;;;;5032275;28;20246;-53
2023/01/10 08:15:57;;;;;;;17.27;6.47;;;5.30;99.90;;;;;;5034465;28;20203;-50
2023/01/10 08:18:25;;;;;;;17.03;5.60;;;5.30;99.90;;;;;;5027524;28;20232;-49
2023/01/10 08:20:53;;;;;;;14.90;6.07;;;5.40;99.90;;;;;;5022499;28;20215;-50
2023/01/10 08:23:21;;;;;;;18.70;6.70;;;5.40;99.90;;;;;;5028225;28;22065;-47
2023/01/10 08:25:49;;;;;;;10.53;3.80;;;5.40;99.90;;;;;;5032599;28;20203;-51
2023/01/10 08:28:16;;;;;;;13.37;4.83;;;5.50;99.90;;;;;;5025468;28;20985;-51
2023/01/10 08:30:43;;;;;;;20.23;6.37;;;5.50;99.90;;;;;;5034096;28;20200;-49
2023/01/10 08:33:11;;;;;;;13.07;4.70;;;5.60;99.90;;;;;;5024015;28;20223;-49
2023/01/10 08:35:38;;;;;;;23.77;6.80;;;5.60;99.90;;;;;;5014514;28;20217;-51
2023/01/10 08:38:05;;;;;;;19.50;5.20;;;5.70;99.90;;;;;;5018886;28;20223;-54
2023/01/10 08:40:57;;;;;;;18.57;6.10;;;5.70;99.90;;;;;;5020933;28;20215;-51
2023/01/10 08:43:24;;;;;;;19.30;7.00;;;5.70;99.90;;;;;;5024318;28;20290;-50
2023/01/10 08:45:51;;;;;;;18.27;6.40;;;5.80;99.90;;;;;;5024403;28;20211;-51
2023/01/10 08:48:18;;;;;;;14.93;4.27;;;5.80;99.90;;;;;;5026721;28;20219;-51
2023/01/10 08:50:45;;;;;;;21.53;6.30;;;5.90;99.90;;;;;;5021284;28;20579;-48
2023/01/10 08:53:12;;;;;;;20.93;6.03;;;5.90;99.90;;;;;;5028611;28;20581;-51
2023/01/10 08:55:39;;;;;;;18.47;5.27;;;5.90;99.90;;;;;;5033037;28;20710;-49
2023/01/10 08:58:08;;;;;;;18.33;5.40;;;5.90;99.90;;;;;;5022171;28;20231;-48
2023/01/10 09:00:35;;;;;;;13.90;6.27;;;6.00;99.90;;;;;;5034268;28;20195;-51
2023/01/10 09:03:02;;;;;;;13.50;4.90;;;6.00;99.90;;;;;;5027793;28;20196;-50
2023/01/10 09:05:29;;;;;;;16.60;6.10;;;6.00;99.90;;;;;;5031220;28;20206;-51
2023/01/10 09:07:59;;;;;;;21.43;6.47;;;6.00;99.90;;;;;;5025833;28;20232;-51
2023/01/10 09:10:26;;;;;;;15.23;6.00;;;6.10;99.90;;;;;;5028089;28;20285;-49
2023/01/10 09:12:58;;;;;;;21.70;6.00;;;6.10;99.90;;;;;;5033838;28;20436;-53
2023/01/10 09:15:28;;;;;;;22.20;8.93;;;6.10;99.90;;;;;;5032042;28;20203;-51
2023/01/10 09:17:56;;;;;;;16.10;6.40;;;6.10;99.90;;;;;;5021839;28;20246;-53
2023/01/10 09:20:25;;;;;;;20.43;6.47;;;6.10;99.90;;;;;;5034161;28;20203;-53
2023/01/10 09:22:52;;;;;;;16.97;6.03;;;6.10;99.90;;;;;;5016800;28;20568;-51
2023/01/10 09:25:19;;;;;;;23.33;8.33;;;6.10;99.90;;;;;;5038546;28;20191;-51
2023/01/10 09:27:45;;;;;;;29.57;10.77;;;6.10;99.90;;;;;;5031548;28;20223;-51
2023/01/10 09:30:13;;;;;;;30.00;12.53;;;6.10;99.90;;;;;;5028533;28;20188;-53
2023/01/10 09:32:41;;;;;;;14.60;7.07;;;6.20;99.90;;;;;;5037753;28;20216;-52
2023/01/10 09:35:08;;;;;;;22.50;8.33;;;6.20;99.90;;;;;;5031112;28;20201;-53
2023/01/10 09:37:36;;;;;;;19.23;7.33;;;6.20;99.90;;;;;;5033531;28;20218;-43
2023/01/10 09:40:05;;;;;;;17.20;7.93;;;6.30;99.90;;;;;;5016851;28;20211;-46
2023/01/10 09:42:45;;;;;;;17.30;7.47;;;6.30;99.90;;;;;;5024647;28;20215;-48
2023/01/10 09:45:17;;;;;;;17.40;7.13;;;6.30;99.90;;;;;;5031597;28;20207;-45
2023/01/10 09:47:53;;;;;;;21.77;7.57;;;6.40;99.90;;;;;;5025843;28;20295;-58
2023/01/10 09:50:27;;;;;;;21.67;9.07;;;6.40;99.90;;;;;;5022109;28;20203;-45
2023/01/10 09:53:02;;;;;;;20.83;7.87;;;6.40;99.90;;;;;;5026984;28;20230;-56
2023/01/10 09:55:31;;;;;;;28.47;10.07;;;6.40;99.90;;;;;;5020287;28;20233;-49
2023/01/10 09:58:00;;;;;;;12.30;6.90;;;6.50;99.90;;;;;;5029462;28;20230;-58
2023/01/10 10:00:36;;;;;;;21.20;8.80;;;6.50;99.90;;;;;;5033901;28;20214;-51
2023/01/10 10:03:11;;;;;;;23.80;7.93;;;6.50;99.90;;;;;;5030180;28;20816;-50
2023/01/10 10:05:37;;;;;;;20.40;8.50;;;6.50;99.90;;;;;;5034267;28;20195;-50
2023/01/10 10:08:15;;;;;;;17.77;8.40;;;6.50;99.90;;;;;;5029754;28;20219;-52
2023/01/10 10:10:54;;;;;;;22.93;9.77;;;6.60;99.90;;;;;;5022712;28;20203;-55
2023/01/10 10:13:28;;;;;;;19.20;7.60;;;6.60;99.90;;;;;;5033377;28;20223;-45
2023/01/10 10:16:04;;;;;;;17.43;9.90;;;6.60;99.90;;;;;;5031019;28;20208;-57
2023/01/10 10:18:42;;;;;;;30.03;9.90;;;6.60;99.90;;;;;;5039298;28;20697;-49
2023/01/10 10:21:16;;;;;;;14.43;7.87;;;6.60;99.90;;;;;;5029222;28;20203;-49
2023/01/10 10:23:59;;;;;;;18.83;8.30;;;6.60;99.90;;;;;;5027165;28;20278;-57
2023/01/10 10:26:33;;;;;;;18.97;8.23;;;6.60;99.90;;;;;;5014575;28;20206;-50
2023/01/10 10:29:20;;;;;;;17.23;9.47;;;6.60;99.90;;;;;;5028144;28;20223;-50
2023/01/10 10:32:07;;;;;;;19.27;10.00;;;6.60;99.90;;;;;;5029869;28;20210;-48
2023/01/10 10:34:39;;;;;;;17.60;9.37;;;6.60;99.90;;;;;;5019787;28;20218;-46
2023/01/10 10:37:13;;;;;;;20.10;9.07;;;6.60;99.90;;;;;;5024900;28;20232;-56
2023/01/10 10:39:45;;;;;;;17.43;9.67;;;6.60;99.90;;;;;;5025143;28;20250;-57
2023/01/10 10:42:16;;;;;;;20.20;9.43;;;6.60;99.90;;;;;;5021097;28;20210;-45
2023/01/10 10:44:46;;;;;;;18.77;10.07;;;6.60;99.90;;;;;;5025879;28;20207;-58
2023/01/10 10:47:15;;;;;;;18.47;8.73;;;6.60;99.90;;;;;;5027003;28;20232;-46
2023/01/10 10:49:49;;;;;;;19.77;9.63;;;6.60;99.90;;;;;;5027260;28;20292;-58
2023/01/10 10:52:23;;;;;;;24.40;8.93;;;6.60;99.90;;;;;;5059800;28;20213;-50
2023/01/10 10:54:51;;;;;;;14.17;9.10;;;6.60;99.90;;;;;;5022024;28;20219;-50
2023/01/10 10:57:21;;;;;;;29.30;11.93;;;6.60;99.90;;;;;;5020453;28;20591;-54
2023/01/10 10:59:48;;;;;;;17.30;10.17;;;6.60;99.90;;;;;;5029374;28;20199;-55
2023/01/10 11:02:25;;;;;;;22.40;11.23;;;6.60;99.90;;;;;;5029514;28;20253;-50
2023/01/10 11:04:56;;;;;;;21.30;9.87;;;6.70;99.90;;;;;;5031485;28;20183;-45
2023/01/10 11:07:26;;;;;;;13.50;7.93;;;6.70;99.90;;;;;;5028404;28;20220;-47
2023/01/10 11:10:00;;;;;;;16.77;9.63;;;6.70;99.90;;;;;;5017188;28;20195;-47
2023/01/10 11:12:31;;;;;;;22.53;11.17;;;6.70;99.90;;;;;;5025094;28;20204;-51
2023/01/10 11:14:58;;;;;;;16.10;9.60;;;6.70;99.90;;;;;;5021691;28;20336;-45
2023/01/10 11:17:27;;;;;;;16.17;8.83;;;6.80;99.90;;;;;;5019312;28;20220;-57
2023/01/10 11:20:00;;;;;;;21.93;10.33;;;6.80;99.90;;;;;;5022848;28;20194;-48
2023/01/10 11:22:30;;;;;;;23.07;10.53;;;6.80;99.90;;;;;;5026782;28;20629;-54
2023/01/10 11:24:59;;;;;;;19.63;10.10;;;6.80;99.90;;;;;;5027884;28;20338;-48
2023/01/10 11:27:29;;;;;;;27.73;12.47;;;6.80;99.90;;;;;;5024552;28;20306;-48
2023/01/10 11:29:58;;;;;;;16.70;8.87;;;6.80;99.90;;;;;;5016254;28;20363;-50
2023/01/10 11:32:34;;;;;;;26.50;10.40;;;6.80;99.90;;;;;;5035348;28;20218;-51
2023/01/10 11:35:07;;;;;;;18.87;9.20;;;6.80;99.90;;;;;;5035550;28;20207;-48
2023/01/10 11:37:35;;;;;;;23.70;9.90;;;6.80;99.90;;;;;;5036648;28;20226;-59
2023/01/10 11:40:22;;;;;;;19.10;9.87;;;6.80;99.90;;;;;;5037212;28;20326;-47
2023/01/10 11:42:50;;;;;;;22.30;9.50;;;6.80;99.90;;;;;;5025467;28;20203;-45
2023/01/10 11:45:26;;;;;;;23.67;10.63;;;6.80;99.90;;;;;;5024623;28;20196;-46
2023/01/10 11:47:57;;;;;;;20.00;9.47;;;6.90;99.90;;;;;;5028719;28;20992;-49
2023/01/10 11:50:27;;;;;;;19.77;10.77;;;6.90;99.90;;;;;;5034240;28;20200;-51
2023/01/10 11:52:56;;;;;;;19.43;10.07;;;6.90;99.90;;;;;;5038584;28;20275;-45
2023/01/10 11:55:26;;;;;;;22.80;10.40;;;6.90;99.90;;;;;;5039591;28;20715;-51
2023/01/10 11:58:00;;;;;;;23.53;10.00;;;6.90;99.90;;;;;;5027921;28;20845;-50
2023/01/10 12:00:41;;;;;;;26.80;10.23;;;6.90;99.90;;;;;;5039462;28;20195;-47
2023/01/10 12:03:19;;;;;;;22.50;9.73;;;7.00;99.90;;;;;;5024257;28;20204;-60
2023/01/10 12:05:53;;;;;;;19.90;9.87;;;7.00;99.90;;;;;;5034441;28;20215;-52
2023/01/10 12:08:43;;;;;;;15.67;9.80;;;7.00;99.90;;;;;;5037086;28;20218;-52
2023/01/10 12:11:26;;;;;;;27.20;11.90;;;7.00;99.90;;;;;;5036830;28;20202;-59
2023/01/10 12:13:55;;;;;;;28.23;12.23;;;7.00;99.90;;;;;;5029480;28;20716;-50
2023/01/10 12:16:23;;;;;;;22.40;10.67;;;7.10;99.90;;;;;;5021149;28;20204;-59
2023/01/10 12:18:53;;;;;;;27.90;12.13;;;7.10;99.90;;;;;;5031309;28;20227;-48
2023/01/10 12:21:26;;;;;;;17.60;10.70;;;7.10;99.90;;;;;;5026336;28;20210;-57
2023/01/10 12:23:57;;;;;;;26.17;11.90;;;7.10;99.90;;;;;;5035349;28;20202;-50
2023/01/10 12:26:26;;;;;;;26.30;12.83;;;7.10;99.90;;;;;;5037663;28;20897;-58
2023/01/10 12:28:56;;;;;;;17.53;9.47;;;7.20;99.90;;;;;;5028411;28;20227;-50
2023/01/10 12:31:23;;;;;;;20.60;10.27;;;7.20;99.90;;;;;;5030836;28;20541;-57
2023/01/10 12:33:55;;;;;;;29.17;11.57;;;7.20;99.90;;;;;;5015423;28;20369;-48
2023/01/10 12:36:36;;;;;;;23.07;10.37;;;7.20;99.90;;;;;;5024805;28;20207;-58
2023/01/10 12:39:13;;;;;;;16.53;9.83;;;7.30;99.90;;;;;;5041782;28;20211;-56
2023/01/10 12:44:37;;;;;;;25.67;9.50;;;7.30;99.90;;;;;;5027252;28;20198;-50
2023/01/10 12:47:14;;;;;;;22.80;10.50;;;7.30;99.90;;;;;;5029673;28;20664;-47
2023/01/10 12:49:45;;;;;;;19.53;9.47;;;7.40;99.90;;;;;;5019872;28;20930;-44
2023/01/10 12:52:18;;;;;;;22.27;8.73;;;7.40;99.90;;;;;;5023338;28;20258;-55
2023/01/10 12:54:47;;;;;;;24.63;10.17;;;7.40;99.90;;;;;;5035215;28;20223;-51
2023/01/10 12:57:22;;;;;;;24.57;8.77;;;7.40;99.90;;;;;;5038559;28;20310;-58
2023/01/10 12:59:49;;;;;;;20.93;9.13;;;7.40;99.90;;;;;;5034685;28;20218;-45
2023/01/10 13:02:20;;;;;;;32.43;12.27;;;7.40;99.90;;;;;;5021578;28;20208;-54
2023/01/10 13:05:17;;;;;;;25.87;11.07;;;7.40;99.90;;;;;;5022876;28;20645;-57
2023/01/10 13:07:48;;;;;;;25.33;10.60;;;7.50;99.90;;;;;;5032753;28;20227;-45
2023/01/10 13:10:19;;;;;;;23.13;9.33;;;7.50;99.90;;;;;;5033825;28;20685;-57